Time;durP1;ratioP1;P1;durP2;ratioP2;P2;SDS_P1;SDS_P2;PMS_P1;PMS_P2;Temp;Humidity;BMP_temperature;BMP_pressure;BME280_temperature;BME280_humidity;BME280_pressure;Samples;Min_cycle;Max_cycle;Signal;HPM_P1;HPM_P2
2021/12/07 00:00:58;;;;;;;5.50;1.50;;;;;;;2.82;100.00;99269.75;4985188;28;20049;-87
2021/12/07 00:03:25;;;;;;;3.95;1.33;;;;;;;2.56;100.00;99278.25;4989195;28;20081;-87
2021/12/07 00:05:52;;;;;;;5.07;1.77;;;;;;;2.50;100.00;99275.00;4991551;28;20085;-87
2021/12/07 00:08:19;;;;;;;2.90;1.35;;;;;;;2.38;100.00;99282.19;5003024;28;20536;-87
2021/12/07 00:10:48;;;;;;;3.45;1.20;;;;;;;2.24;100.00;99254.16;5003389;28;20050;-87
2021/12/07 00:13:15;;;;;;;5.28;1.63;;;;;;;2.27;100.00;99274.75;4995139;28;20050;-87
2021/12/07 00:15:42;;;;;;;4.03;1.45;;;;;;;2.27;100.00;99292.00;4985489;28;20049;-88
2021/12/07 00:18:09;;;;;;;3.03;1.30;;;;;;;2.24;100.00;99287.75;4982014;28;20141;-87
2021/12/07 00:20:36;;;;;;;4.85;1.60;;;;;;;2.25;100.00;99284.28;4992933;28;20057;-87
2021/12/07 00:23:07;;;;;;;2.85;1.30;;;;;;;2.34;100.00;99303.84;5004316;28;20053;-87
2021/12/07 00:25:35;;;;;;;3.53;1.30;;;;;;;2.57;100.00;99313.56;4986915;28;20056;-87
2021/12/07 00:28:04;;;;;;;2.95;1.50;;;;;;;2.59;100.00;99300.59;4992939;28;20050;-88
2021/12/07 00:30:33;;;;;;;2.13;1.30;;;;;;;2.80;100.00;99300.00;4987055;28;20132;-87
2021/12/07 00:33:13;;;;;;;3.22;1.33;;;;;;;2.95;100.00;99310.78;4995254;28;20078;-88
2021/12/07 00:35:41;;;;;;;2.65;1.30;;;;;;;2.86;100.00;99306.72;4985964;28;20049;-88
2021/12/07 00:38:12;;;;;;;2.55;1.30;;;;;;;2.75;100.00;99293.25;4988739;28;20041;-87
2021/12/07 00:40:41;;;;;;;3.05;1.38;;;;;;;2.61;100.00;99291.06;4989108;28;20120;-88
2021/12/07 00:43:08;;;;;;;2.50;1.10;;;;;;;2.86;100.00;99322.22;5004852;28;20060;-87
2021/12/07 00:45:36;;;;;;;3.17;1.10;;;;;;;2.83;100.00;99317.13;4984459;28;20412;-87
2021/12/07 00:48:05;;;;;;;1.35;1.02;;;;;;;3.16;100.00;99335.16;4985931;28;20049;-87
2021/12/07 00:50:33;;;;;;;3.58;1.10;;;;;;;3.33;100.00;99351.03;5004455;28;20046;-87
2021/12/07 00:53:02;;;;;;;1.50;1.10;;;;;;;3.26;100.00;99335.72;4992013;28;20050;-87
2021/12/07 00:55:33;;;;;;;6.20;1.88;;;;;;;3.11;100.00;99347.38;4985732;28;20056;-87
2021/12/07 00:58:00;;;;;;;2.38;1.35;;;;;;;3.04;100.00;99352.72;4981003;28;20580;-87
2021/12/07 01:00:30;;;;;;;3.53;1.25;;;;;;;3.03;100.00;99363.13;5004147;28;20439;-87
2021/12/07 01:02:57;;;;;;;2.90;1.30;;;;;;;2.98;100.00;99359.81;4993759;28;20455;-87
2021/12/07 01:05:30;;;;;;;1.67;1.20;;;;;;;2.69;100.00;99335.59;4993196;28;20046;-87
2021/12/07 01:24:42;;;;;;;1.30;1.10;;;;;;;2.83;100.00;99340.41;5002457;28;20053;-87
2021/12/07 01:27:13;;;;;;;1.73;1.17;;;;;;;2.80;100.00;99346.50;5005857;28;20395;-88
2021/12/07 01:29:41;;;;;;;1.83;1.00;;;;;;;2.94;100.00;99343.53;4985259;28;20054;-88
2021/12/07 01:32:25;;;;;;;2.42;1.15;;;;;;;2.99;100.00;99354.59;4984961;28;20096;-87
2021/12/07 01:49:34;;;;;;;2.80;1.10;;;;;;;3.44;100.00;99340.34;5002652;28;20125;-87
2021/12/07 02:01:53;;;;;;;1.55;1.00;;;;;;;3.23;100.00;99303.88;5005535;28;20054;-88
2021/12/07 02:04:20;;;;;;;2.03;1.10;;;;;;;3.31;100.00;99354.53;5002826;28;20104;-87
2021/12/07 02:06:47;;;;;;;1.25;1.00;;;;;;;3.05;100.00;99338.06;4985881;28;20057;-87
2021/12/07 02:09:13;;;;;;;1.98;1.00;;;;;;;3.04;100.00;99359.63;5002457;28;20057;-87
2021/12/07 02:11:47;;;;;;;1.85;0.90;;;;;;;2.91;100.00;99358.31;4992615;28;20132;-87
2021/12/07 02:14:16;;;;;;;1.23;1.00;;;;;;;2.94;100.00;99386.63;4985032;28;20389;-87
2021/12/07 02:17:05;;;;;;;3.20;1.20;;;;;;;2.93;100.00;99377.19;4987583;28;20145;-87
2021/12/07 02:19:33;;;;;;;2.30;1.10;;;;;;;3.03;100.00;99379.47;5001606;28;20649;-87
2021/12/07 02:22:00;;;;;;;1.17;1.00;;;;;;;2.78;100.00;99379.31;4986424;28;20054;-87
2021/12/07 02:24:28;;;;;;;1.33;1.00;;;;;;;2.75;100.00;99388.91;4984113;28;20058;-88
2021/12/07 02:26:56;;;;;;;1.90;1.20;;;;;;;2.72;100.00;99394.97;4985980;28;20048;-87
2021/12/07 02:29:23;;;;;;;1.10;1.00;;;;;;;2.44;100.00;99344.06;5004664;28;20105;-88
2021/12/07 02:31:51;;;;;;;1.50;1.00;;;;;;;2.55;100.00;99381.66;4985202;28;20050;-88
2021/12/07 02:34:19;;;;;;;1.30;0.90;;;;;;;2.28;100.00;99371.16;4987560;28;20050;-87
2021/12/07 02:36:46;;;;;;;2.08;1.17;;;;;;;2.57;100.00;99400.56;4983302;28;20494;-88
2021/12/07 02:39:13;;;;;;;1.85;1.10;;;;;;;2.16;100.00;99369.75;4984941;28;20051;-87
2021/12/07 02:41:41;;;;;;;1.27;1.10;;;;;;;2.43;100.00;99373.34;4984889;28;20050;-87
2021/12/07 02:44:09;;;;;;;2.45;1.00;;;;;;;2.52;100.00;99368.84;4986689;28;20061;-87
2021/12/07 02:46:38;;;;;;;1.48;1.10;;;;;;;2.34;100.00;99355.50;4986052;28;20069;-87
2021/12/07 02:49:06;;;;;;;1.23;1.10;;;;;;;2.28;100.00;99361.69;4995370;28;20046;-88
2021/12/07 02:51:34;;;;;;;1.92;1.20;;;;;;;2.37;100.00;99378.66;5007903;28;20052;-88
2021/12/07 02:54:01;;;;;;;1.98;1.15;;;;;;;2.44;100.00;99381.94;4989408;28;20045;-88
2021/12/07 02:56:27;;;;;;;1.10;1.00;;;;;;;2.39;100.00;99388.97;5007136;28;20068;-88
2021/12/07 02:59:01;;;;;;;1.90;1.17;;;;;;;2.35;100.00;99384.75;4993354;28;20049;-88
2021/12/07 03:01:32;;;;;;;2.03;1.15;;;;;;;2.20;100.00;99383.44;4992188;28;20793;-87
2021/12/07 03:04:11;;;;;;;2.22;0.98;;;;;;;2.20;100.00;99389.44;4989141;28;20133;-87
2021/12/07 03:07:15;;;;;;;2.20;1.17;;;;;;;2.21;100.00;99404.06;4987834;28;20047;-87
2021/12/07 03:26:08;;;;;;;1.67;1.00;;;;;;;2.01;100.00;99390.78;5005093;28;20057;-88
2021/12/07 03:28:39;;;;;;;3.20;1.35;;;;;;;1.83;100.00;99371.41;4989669;28;20487;-88
2021/12/07 03:31:08;;;;;;;2.42;1.20;;;;;;;1.97;100.00;99359.00;4987426;28;20077;-87
2021/12/07 03:33:35;;;;;;;2.95;1.45;;;;;;;1.94;100.00;99359.09;5007321;28;20057;-89
2021/12/07 03:36:05;;;;;;;2.50;1.20;;;;;;;2.00;100.00;99371.84;4985821;28;20053;-87
2021/12/07 03:38:32;;;;;;;1.55;1.08;;;;;;;2.03;100.00;99369.19;4985840;28;20054;-86
2021/12/07 03:41:00;;;;;;;1.92;1.10;;;;;;;1.96;100.00;99359.88;4989018;28;20503;-88
2021/12/07 03:43:27;;;;;;;1.83;1.10;;;;;;;2.02;100.00;99375.25;4986377;28;20645;-87
2021/12/07 03:45:54;;;;;;;2.35;1.08;;;;;;;1.82;100.00;99367.13;4990445;28;20050;-87
2021/12/07 03:48:21;;;;;;;3.75;1.30;;;;;;;1.66;100.00;99370.06;4987863;28;20054;-87
2021/12/07 03:50:48;;;;;;;2.35;1.20;;;;;;;1.60;100.00;99377.94;5007056;28;20581;-88
2021/12/07 03:53:15;;;;;;;4.20;1.30;;;;;;;1.58;100.00;99384.03;4995173;28;20043;-88
2021/12/07 03:55:43;;;;;;;2.83;1.40;;;;;;;1.02;100.00;99359.41;4984271;28;20680;-88
2021/12/07 03:58:11;;;;;;;4.28;1.20;;;;;;;1.45;100.00;99381.72;5004911;28;20051;-87
2021/12/07 04:00:41;;;;;;;2.35;1.30;;;;;;;1.46;100.00;99375.66;4988806;28;20056;-87
2021/12/07 04:03:10;;;;;;;2.10;1.30;;;;;;;1.49;100.00;99373.03;4987412;28;20046;-87
2021/12/07 04:05:45;;;;;;;3.28;1.50;;;;;;;1.40;100.00;99374.94;4993842;28;20046;-87
2021/12/07 04:08:17;;;;;;;3.03;1.40;;;;;;;1.38;100.00;99376.72;5006446;28;20411;-87
2021/12/07 04:10:45;;;;;;;2.85;1.38;;;;;;;1.32;100.00;99388.84;4986359;28;20369;-87
2021/12/07 04:13:12;;;;;;;2.15;1.30;;;;;;;1.16;100.00;99366.88;4983896;28;20052;-87
2021/12/07 04:15:39;;;;;;;2.05;1.30;;;;;;;1.30;100.00;99375.16;4989566;28;20093;-87
2021/12/07 04:18:06;;;;;;;3.95;1.58;;;;;;;1.18;100.00;99374.56;5005486;28;20052;-87
2021/12/07 04:20:34;;;;;;;1.80;1.15;;;;;;;1.36;100.00;99378.47;4985098;28;20046;-87
2021/12/07 04:23:00;;;;;;;6.82;2.65;;;;;;;0.80;100.00;99356.44;4994801;28;20050;-87
2021/12/07 04:25:27;;;;;;;2.72;1.42;;;;;;;0.96;100.00;99346.66;4986134;28;20046;-87
2021/12/07 04:27:55;;;;;;;4.38;1.52;;;;;;;0.92;100.00;99345.88;5002606;28;20058;-87
2021/12/07 04:30:31;;;;;;;4.18;1.60;;;;;;;1.12;100.00;99391.03;4982951;28;20489;-87
2021/12/07 04:32:59;;;;;;;4.65;1.88;;;;;;;1.08;100.00;99387.66;4989278;28;20492;-87
2021/12/07 04:35:28;;;;;;;3.78;1.67;;;;;;;1.18;100.00;99384.88;4984065;28;20054;-87
2021/12/07 04:37:56;;;;;;;3.58;1.60;;;;;;;1.23;100.00;99385.66;4982719;28;20404;-88
2021/12/07 04:40:27;;;;;;;4.53;1.85;;;;;;;1.25;100.00;99397.59;4988279;28;20416;-87
2021/12/07 04:42:54;;;;;;;3.35;1.80;;;;;;;1.20;100.00;99390.84;4986730;28;20056;-87
2021/12/07 04:48:23;;;;;;;5.68;1.30;;;;;;;1.24;100.00;99388.19;5003149;28;20472;-88
2021/12/07 04:59:10;;;;;;;5.10;1.30;;;;;;;1.42;100.00;99391.25;5003451;28;20473;-87
2021/12/07 05:01:37;;;;;;;2.53;1.30;;;;;;;1.46;100.00;99387.72;4985494;28;20499;-87
2021/12/07 05:04:16;;;;;;;6.40;1.33;;;;;;;1.52;100.00;99388.44;4984684;28;20065;-87
2021/12/07 05:06:49;;;;;;;1.80;1.20;;;;;;;1.54;100.00;99366.91;4989567;28;20502;-88
2021/12/07 05:14:35;;;;;;;3.05;1.25;;;;;;;1.36;100.00;99366.44;5004804;28;20562;-88
2021/12/07 05:38:49;;;;;;;3.38;1.40;;;;;;;1.47;100.00;99348.13;4991754;28;20062;-87
2021/12/07 05:41:16;;;;;;;6.00;1.50;;;;;;;1.44;100.00;99349.06;4981649;28;20656;-87
2021/12/07 05:43:42;;;;;;;3.92;1.27;;;;;;;1.70;100.00;99369.13;4996152;28;20052;-87
2021/12/07 05:46:09;;;;;;;4.72;1.52;;;;;;;1.68;100.00;99359.69;4983980;28;20050;-87
2021/12/07 05:48:36;;;;;;;6.50;1.80;;;;;;;1.76;100.00;99362.13;4984382;28;20168;-87
2021/12/07 05:51:03;;;;;;;8.20;2.08;;;;;;;1.83;100.00;99361.09;5002574;28;20061;-86
2021/12/07 05:53:29;;;;;;;5.00;1.38;;;;;;;1.74;100.00;99376.78;4988783;28;20070;-87
2021/12/07 05:55:57;;;;;;;4.55;1.40;;;;;;;1.56;100.00;99363.44;4985088;28;20165;-87
2021/12/07 05:58:24;;;;;;;8.55;1.50;;;;;;;1.50;100.00;99363.56;4982976;28;20050;-87
2021/12/07 06:00:51;;;;;;;4.68;1.30;;;;;;;1.40;100.00;99354.31;4990774;28;20049;-87
2021/12/07 06:03:17;;;;;;;6.30;1.70;;;;;;;1.40;100.00;99369.78;5005659;28;20128;-88
2021/12/07 06:05:45;;;;;;;2.80;1.30;;;;;;;1.48;100.00;99366.16;4985232;28;20488;-87
2021/12/07 06:08:12;;;;;;;3.35;1.30;;;;;;;1.53;100.00;99355.75;5003094;28;20047;-87
2021/12/07 06:10:39;;;;;;;3.25;1.55;;;;;;;1.67;100.00;99358.84;5001970;28;20546;-87
2021/12/07 06:13:05;;;;;;;4.82;1.60;;;;;;;1.56;100.00;99359.97;4993577;28;20073;-87
2021/12/07 06:15:35;;;;;;;3.35;1.40;;;;;;;1.55;100.00;99361.72;4984232;28;20054;-87
2021/12/07 06:18:02;;;;;;;6.75;1.45;;;;;;;1.33;100.00;99349.31;4987667;28;20121;-87
2021/12/07 06:20:29;;;;;;;4.20;1.52;;;;;;;1.28;100.00;99338.25;4989460;28;20064;-87
2021/12/07 06:23:14;;;;;;;3.63;1.50;;;;;;;1.39;100.00;99361.22;4995219;28;20489;-88
2021/12/07 06:25:41;;;;;;;6.80;1.50;;;;;;;1.39;100.00;99365.53;5004936;28;20064;-87
2021/12/07 06:28:08;;;;;;;6.72;1.70;;;;;;;1.41;100.00;99356.88;5008851;28;20045;-87
2021/12/07 06:30:40;;;;;;;5.03;1.70;;;;;;;1.23;100.00;99337.50;4989631;28;20519;-87
2021/12/07 06:33:07;;;;;;;3.95;1.75;;;;;;;1.06;100.00;99319.81;4994494;28;20965;-87
2021/12/07 06:35:33;;;;;;;4.15;1.48;;;;;;;1.12;100.00;99308.53;4988227;28;20172;-87
2021/12/07 06:38:00;;;;;;;6.55;1.40;;;;;;;1.18;100.00;99317.84;4990714;28;20060;-87
2021/12/07 06:40:27;;;;;;;3.33;1.25;;;;;;;1.37;100.00;99338.94;4986606;28;20054;-86
2021/12/07 06:42:59;;;;;;;5.35;1.58;;;;;;;1.51;100.00;99311.09;5004956;28;20431;-87
2021/12/07 06:45:28;;;;;;;4.50;1.48;;;;;;;1.42;100.00;99301.00;5004019;28;20050;-88
2021/12/07 06:47:55;;;;;;;3.40;1.40;;;;;;;1.40;100.00;99308.75;5007545;28;20059;-88
2021/12/07 06:50:23;;;;;;;6.00;1.60;;;;;;;1.31;100.00;99296.91;4986344;28;20064;-87
2021/12/07 06:52:50;;;;;;;5.30;1.48;;;;;;;1.39;100.00;99298.47;4988734;28;20496;-88
2021/12/07 06:55:16;;;;;;;3.47;1.40;;;;;;;1.21;100.00;99292.00;4988476;28;20046;-88
2021/12/07 06:57:43;;;;;;;3.88;1.45;;;;;;;0.89;100.00;99265.22;5004641;28;20046;-87
2021/12/07 07:00:12;;;;;;;2.78;1.30;;;;;;;0.88;100.00;99289.28;4988451;28;20054;-90
2021/12/07 07:02:39;;;;;;;4.55;1.50;;;;;;;0.93;100.00;99283.13;4986843;28;20101;-91
2021/12/07 07:05:06;;;;;;;5.13;1.42;;;;;;;0.98;100.00;99292.53;4992367;28;20133;-90
2021/12/07 07:07:34;;;;;;;4.68;1.52;;;;;;;0.95;100.00;99278.78;4989109;28;20048;-91
2021/12/07 07:10:01;;;;;;;5.20;1.70;;;;;;;1.24;100.00;99316.00;5003545;28;20085;-92
2021/12/07 07:12:28;;;;;;;4.32;1.83;;;;;;;1.08;100.00;99296.56;4997457;28;20057;-90
2021/12/07 07:14:55;;;;;;;5.25;1.60;;;;;;;1.22;100.00;99301.41;4988901;28;20050;-91
2021/12/07 07:17:22;;;;;;;9.00;2.65;;;;;;;1.00;100.00;99294.16;4992898;28;20100;-91
2021/12/07 07:19:48;;;;;;;6.22;1.95;;;;;;;0.94;100.00;99297.72;5004170;28;20054;-92
2021/12/07 07:22:15;;;;;;;4.53;1.73;;;;;;;0.89;100.00;99296.97;4987267;28;20156;-91
2021/12/07 07:24:43;;;;;;;6.00;1.60;;;;;;;0.40;100.00;99225.03;4989149;28;20070;-91
2021/12/07 07:27:09;;;;;;;7.18;1.77;;;;;;;0.70;100.00;99273.31;5001472;28;20129;-91
2021/12/07 07:29:36;;;;;;;4.68;1.58;;;;;;;1.13;100.00;99287.88;4988726;28;20140;-91
2021/12/07 07:32:04;;;;;;;4.53;1.70;;;;;;;1.12;100.00;99287.91;4983572;28;20057;-92
2021/12/07 07:34:30;;;;;;;3.53;1.67;;;;;;;1.02;100.00;99294.97;4989629;28;20054;-91
2021/12/07 07:36:57;;;;;;;5.22;1.67;;;;;;;0.96;100.00;99297.69;5013821;28;20076;-90
2021/12/07 07:39:24;;;;;;;4.47;1.67;;;;;;;0.93;100.00;99296.03;5014461;28;20056;-92
2021/12/07 07:41:51;;;;;;;7.05;1.80;;;;;;;0.69;100.00;99250.16;5003349;28;20061;-91
2021/12/07 07:44:17;;;;;;;6.50;1.85;;;;;;;0.86;100.00;99286.72;4996557;28;20056;-92
2021/12/07 07:46:44;;;;;;;6.72;2.13;;;;;;;0.85;100.00;99287.63;4986254;28;20057;-91
2021/12/07 07:49:11;;;;;;;7.90;2.08;;;;;;;0.93;100.00;99297.75;4995030;28;20144;-91
2021/12/07 07:51:38;;;;;;;4.82;1.98;;;;;;;0.48;100.00;99248.88;4992326;28;20049;-91
2021/12/07 07:54:06;;;;;;;3.60;1.60;;;;;;;0.66;100.00;99273.44;4987236;28;20050;-91
2021/12/07 07:56:33;;;;;;;6.55;2.45;;;;;;;0.52;100.00;99247.94;4989553;28;20050;-89
2021/12/07 07:59:00;;;;;;;9.02;2.20;;;;;;;0.66;100.00;99263.13;4990622;28;20133;-87
2021/12/07 08:01:31;;;;;;;7.90;2.35;;;;;;;0.71;100.00;99274.19;4997072;28;20060;-89
2021/12/07 08:04:00;;;;;;;6.05;2.25;;;;;;;0.82;100.00;99281.69;4986086;28;20049;-88
2021/12/07 08:06:28;;;;;;;9.10;3.92;;;;;;;1.01;100.00;99283.00;5013883;28;20133;-89
2021/12/07 08:08:56;;;;;;;7.07;2.10;;;;;;;1.03;100.00;99277.81;5012902;28;20408;-90
2021/12/07 08:11:24;;;;;;;6.32;2.10;;;;;;;0.97;100.00;99272.75;4989611;28;20408;-89
2021/12/07 08:13:53;;;;;;;6.93;2.70;;;;;;;0.95;100.00;99268.47;5006190;28;20081;-88
2021/12/07 08:16:21;;;;;;;12.40;2.55;;;;;;;0.95;100.00;99272.78;4995821;28;20057;-88
2021/12/07 08:18:52;;;;;;;7.82;2.30;;;;;;;0.99;100.00;99271.84;4995933;28;20081;-89
2021/12/07 08:21:20;;;;;;;11.20;2.47;;;;;;;0.90;100.00;99256.59;5012371;28;20050;-89
2021/12/07 08:23:48;;;;;;;5.90;1.77;;;;;;;0.98;100.00;99267.59;4993285;28;20145;-89
2021/12/07 08:26:18;;;;;;;2.55;1.45;;;;;;;0.88;100.00;99258.34;4978827;28;20050;-89
2021/12/07 08:28:49;;;;;;;7.47;2.67;;;;;;;0.80;100.00;99255.94;4996374;28;20050;-89
2021/12/07 08:31:17;;;;;;;5.97;2.28;;;;;;;0.71;100.00;99253.56;4991997;28;20065;-89
2021/12/07 08:33:45;;;;;;;3.97;1.70;;;;;;;0.86;100.00;99255.81;4986222;28;20085;-88
2021/12/07 08:36:11;;;;;;;7.22;4.07;;;;;;;1.05;100.00;99253.69;4983814;28;20050;-86
2021/12/07 08:38:38;;;;;;;8.95;2.70;;;;;;;0.98;100.00;99238.38;4996242;28;20049;-88
2021/12/07 08:41:06;;;;;;;6.53;2.20;;;;;;;0.93;100.00;99229.00;5000880;28;20048;-89
2021/12/07 08:43:35;;;;;;;8.10;2.30;;;;;;;1.04;100.00;99233.09;5000780;28;20054;-89
2021/12/07 08:46:05;;;;;;;12.52;2.60;;;;;;;1.00;100.00;99205.69;4978688;28;20081;-88
2021/12/07 08:48:34;;;;;;;6.95;2.35;;;;;;;0.98;100.00;99221.19;5001626;28;20073;-88
2021/12/07 08:51:02;;;;;;;7.43;2.47;;;;;;;0.84;100.00;99218.91;4984888;28;20056;-90
2021/12/07 08:53:30;;;;;;;6.97;1.92;;;;;;;1.01;100.00;99225.41;4994719;28;20074;-89
2021/12/07 09:01:31;;;;;;;9.52;2.28;;;;;;;0.98;100.00;99210.03;5004782;28;20046;-89
2021/12/07 09:04:00;;;;;;;7.55;2.33;;;;;;;0.98;100.00;99200.56;4992144;28;20053;-89
2021/12/07 09:06:28;;;;;;;11.77;3.63;;;;;;;0.98;100.00;99182.53;4994950;28;20136;-89
2021/12/07 09:08:56;;;;;;;7.93;2.20;;;;;;;1.10;100.00;99182.25;4990026;28;20064;-89
2021/12/07 09:11:23;;;;;;;7.20;2.10;;;;;;;0.98;100.00;99161.91;4981624;28;20061;-89
2021/12/07 09:13:51;;;;;;;12.77;1.92;;;;;;;0.99;100.00;99170.47;5009176;28;20054;-89
2021/12/07 09:16:19;;;;;;;8.25;2.35;;;;;;;0.92;100.00;99165.47;4995076;28;20173;-89
2021/12/07 09:18:47;;;;;;;15.95;3.95;;;;;;;0.92;100.00;99144.88;5004506;28;20502;-90
2021/12/07 09:21:15;;;;;;;10.18;3.53;;;;;;;1.02;100.00;99162.69;4990000;28;20129;-90
2021/12/07 09:23:42;;;;;;;16.02;4.43;;;;;;;0.79;100.00;99148.59;5004070;28;20058;-90
2021/12/07 09:26:10;;;;;;;13.27;4.38;;;;;;;0.71;100.00;99164.25;4987578;28;20050;-89
2021/12/07 09:28:38;;;;;;;11.35;3.90;;;;;;;0.97;100.00;99156.78;4994988;28;20050;-90
2021/12/07 09:31:07;;;;;;;9.85;3.83;;;;;;;1.00;100.00;99143.84;4990032;28;20046;-88
2021/12/07 09:33:35;;;;;;;6.88;2.80;;;;;;;1.08;100.00;99141.91;4991813;28;20056;-89
2021/12/07 09:36:06;;;;;;;10.90;4.05;;;;;;;1.27;100.00;99140.56;4984439;28;20096;-88
2021/12/07 09:38:33;;;;;;;11.07;4.10;;;;;;;1.19;100.00;99149.38;5000477;28;20693;-88
2021/12/07 09:41:02;;;;;;;11.00;3.72;;;;;;;1.09;100.00;99130.72;5003564;28;20081;-89
2021/12/07 09:43:29;;;;;;;10.30;3.75;;;;;;;1.20;100.00;99148.50;4994798;28;20054;-89
2021/12/07 09:45:57;;;;;;;9.70;3.53;;;;;;;1.13;100.00;99134.91;4985692;28;20076;-89
2021/12/07 09:48:25;;;;;;;13.95;4.28;;;;;;;1.16;100.00;99136.56;5008789;28;20113;-90
2021/12/07 09:50:54;;;;;;;11.90;4.45;;;;;;;1.12;100.00;99131.50;4988941;28;20129;-89
2021/12/07 09:53:23;;;;;;;9.32;3.50;;;;;;;0.91;100.00;99065.84;4980806;28;20051;-90
2021/12/07 09:55:56;;;;;;;11.70;4.57;;;;;;;1.52;100.00;99119.31;5000456;28;20129;-89
2021/12/07 09:58:24;;;;;;;10.68;3.50;;;;;;;1.38;100.00;99093.91;5012228;28;20389;-89
2021/12/07 10:00:51;;;;;;;9.93;3.72;;;;;;;1.37;100.00;99099.09;5009533;28;20053;-89
2021/12/07 10:03:20;;;;;;;15.48;5.07;;;;;;;1.43;100.00;99110.06;4993374;28;20061;-89
2021/12/07 10:05:48;;;;;;;13.80;5.43;;;;;;;1.56;100.00;99096.84;4997648;28;20050;-87
2021/12/07 10:08:15;;;;;;;12.65;5.03;;;;;;;1.57;100.00;99086.50;4993620;28;20042;-87
2021/12/07 10:10:48;;;;;;;12.05;5.82;;;;;;;1.54;100.00;99065.09;4995955;28;20053;-87
2021/12/07 10:13:15;;;;;;;14.30;5.70;;;;;;;1.62;100.00;99084.63;4997212;28;20137;-88
2021/12/07 10:15:44;;;;;;;14.95;5.10;;;;;;;1.47;100.00;99065.28;4995937;28;20049;-88
2021/12/07 10:18:14;;;;;;;21.98;7.32;;;;;;;1.51;100.00;99063.44;4995355;28;20069;-88
2021/12/07 10:21:13;;;;;;;13.60;5.70;;;;;;;1.59;100.00;99045.19;4995188;28;20042;-87
2021/12/07 10:23:42;;;;;;;11.70;5.78;;;;;;;1.71;100.00;99060.31;4988939;28;20132;-87
2021/12/07 10:26:11;;;;;;;10.90;4.75;;;;;;;1.80;100.00;99054.88;4996488;28;20060;-87
2021/12/07 10:28:44;;;;;;;14.88;5.53;;;;;;;1.72;100.00;99049.13;4996356;28;20049;-87
2021/12/07 10:31:38;;;;;;;16.88;6.10;;;;;;;1.89;100.00;99039.16;5013373;28;20046;-89
2021/12/07 10:34:06;;;;;;;;;;;;;;;2.20;100.00;99032.22;4979973;28;20053;-88
2021/12/07 10:36:55;;;;;;;15.48;5.50;;;;;;;2.01;100.00;99019.03;4992981;28;19929;-88
2021/12/07 10:39:32;;;;;;;13.43;4.85;;;;;;;2.01;100.00;99019.03;4990355;28;20050;-87
2021/12/07 10:42:02;;;;;;;14.75;5.55;;;;;;;1.73;100.00;98982.88;5011162;28;20046;-88
2021/12/07 10:44:50;;;;;;;14.55;5.60;;;;;;;1.99;100.00;99016.47;4991618;28;20399;-87
2021/12/07 10:47:22;;;;;;;15.15;5.82;;;;;;;2.03;100.00;99019.81;4996076;28;20061;-90
2021/12/07 10:49:51;;;;;;;11.32;4.47;;;;;;;2.21;100.00;99023.56;4983656;28;20053;-91
2021/12/07 10:52:28;;;;;;;16.27;4.95;;;;;;;2.23;100.00;99019.19;4991574;28;20046;-89
2021/12/07 10:54:58;;;;;;;18.38;5.45;;;;;;;2.34;100.00;99011.09;4990848;28;20527;-90
2021/12/07 10:57:33;;;;;;;11.35;3.42;;;;;;;2.46;100.00;98997.81;4996860;28;20060;-90
2021/12/07 11:00:07;;;;;;;12.20;4.13;;;;;;;2.40;100.00;98998.84;5006692;28;20057;-87
2021/12/07 11:02:37;;;;;;;15.13;5.30;;;;;;;2.46;100.00;99009.00;4991248;28;20045;-89
2021/12/07 11:05:16;;;;;;;16.60;4.65;;;;;;;2.51;100.00;99011.41;4988457;28;20054;-89
2021/12/07 11:07:43;;;;;;;15.00;5.07;;;;;;;2.71;100.00;98978.91;5012882;28;20050;-90
2021/12/07 11:10:28;;;;;;;11.02;2.63;;;;;;;2.96;100.00;98968.59;4992194;28;20522;-90
2021/12/07 11:15:30;;;;;;;12.43;2.92;;;;;;;3.55;100.00;98990.63;5008914;28;20054;-90
2021/12/07 11:17:59;;;;;;;12.57;3.25;;;;;;;3.81;100.00;98994.84;4996794;28;20046;-90
2021/12/07 11:20:28;;;;;;;16.45;2.85;;;;;;;3.98;100.00;98963.97;4992398;28;20051;-90
2021/12/07 11:23:20;;;;;;;10.77;3.13;;;;;;;3.98;100.00;98924.28;4993092;28;20053;-90
2021/12/07 11:31:22;;;;;;;10.20;3.08;;;;;;;4.53;100.00;98937.59;5000745;28;20078;-90
2021/12/07 11:33:54;;;;;;;12.18;2.35;;;;;;;4.66;100.00;98924.97;4991237;28;20750;-89
2021/12/07 11:36:21;;;;;;;17.17;2.50;;;;;;;4.96;100.00;98924.56;4988240;28;20053;-89
2021/12/07 11:38:48;;;;;;;12.35;2.50;;;;;;;5.02;100.00;98913.91;5006705;28;20048;-89
2021/12/07 11:41:21;;;;;;;13.15;2.80;;;;;;;5.00;100.00;98894.97;4988032;28;20046;-88
2021/12/07 11:43:53;;;;;;;15.90;2.53;;;;;;;4.95;100.00;98866.63;4996403;28;20129;-89
2021/12/07 11:46:22;;;;;;;10.50;2.42;;;;;;;5.03;100.00;98855.06;5004666;28;20045;-89
2021/12/07 11:49:02;;;;;;;14.73;3.55;;;;;;;5.23;100.00;98869.75;4988237;28;20053;-89
2021/12/07 11:51:28;;;;;;;13.23;3.60;;;;;;;5.20;100.00;98818.00;4992786;28;20052;-89
2021/12/07 11:53:55;;;;;;;17.23;3.38;;;;;;;5.18;100.00;98794.72;4983011;28;20395;-90
2021/12/07 11:56:22;;;;;;;16.08;3.58;;;;;;;5.16;100.00;98755.03;4987813;28;20069;-88
2021/12/07 11:58:49;;;;;;;13.70;3.33;;;;;;;5.37;100.00;98802.50;5010496;28;20052;-89
2021/12/07 12:01:37;;;;;;;11.40;2.65;;;;;;;5.33;100.00;98778.44;4995531;28;20062;-89
2021/12/07 12:04:04;;;;;;;17.10;3.20;;;;;;;5.64;100.00;98789.94;4993325;28;20141;-88
2021/12/07 12:06:32;;;;;;;15.82;2.67;;;;;;;5.46;100.00;98739.75;4992582;28;20069;-89
2021/12/07 12:09:00;;;;;;;18.48;3.45;;;;;;;5.68;100.00;98767.25;4991135;28;20172;-89
2021/12/07 12:11:47;;;;;;;19.92;3.63;;;;;;;5.69;100.00;98756.81;4992541;28;20050;-89
2021/12/07 12:14:20;;;;;;;13.52;3.55;;;;;;;5.79;100.00;98743.34;4994283;28;20062;-89
2021/12/07 12:16:56;;;;;;;13.45;2.85;;;;;;;5.67;100.00;98726.66;4988244;28;20050;-88
2021/12/07 12:19:33;;;;;;;14.50;3.55;;;;;;;5.70;100.00;98721.28;4991701;28;20056;-89
2021/12/07 12:22:14;;;;;;;20.45;3.05;;;;;;;5.93;100.00;98727.09;4995009;28;20492;-89
2021/12/07 12:24:49;;;;;;;15.88;3.53;;;;;;;5.84;100.00;98713.66;4994439;28;20136;-89
2021/12/07 12:27:17;;;;;;;11.68;2.83;;;;;;;5.95;100.00;98709.66;5004780;28;20061;-89
2021/12/07 12:29:48;;;;;;;19.55;3.85;;;;;;;6.03;100.00;98715.34;4987184;28;20257;-89
2021/12/07 12:32:27;;;;;;;19.23;3.10;;;;;;;6.10;100.00;98697.69;4988292;28;20055;-88
2021/12/07 12:34:56;;;;;;;12.48;3.50;;;;;;;5.91;100.00;98680.41;4994850;28;20066;-89
2021/12/07 12:37:31;;;;;;;15.13;3.80;;;;;;;5.88;100.00;98671.03;4993384;28;20050;-89
2021/12/07 12:40:23;;;;;;;25.77;3.47;;;;;;;5.99;100.00;98665.31;4989008;28;20447;-90
2021/12/07 12:42:54;;;;;;;17.67;3.28;;;;;;;5.98;100.00;98655.81;4968499;28;20081;-90
2021/12/07 12:45:27;;;;;;;17.40;3.15;;;;;;;6.05;100.00;98670.16;4995216;28;20469;-89
2021/12/07 12:48:11;;;;;;;23.75;3.45;;;;;;;6.11;100.00;98658.66;4991837;28;20052;-90
2021/12/07 12:50:43;;;;;;;20.42;3.42;;;;;;;6.24;100.00;98644.06;4991439;28;20132;-90
2021/12/07 12:53:12;;;;;;;15.13;2.78;;;;;;;6.10;100.00;98650.94;5004256;28;20403;-90
2021/12/07 12:55:49;;;;;;;18.30;3.22;;;;;;;6.25;100.00;98648.34;5012461;28;20577;-89
2021/12/07 12:58:28;;;;;;;14.00;2.83;;;;;;;6.19;100.00;98627.88;4985975;28;20056;-91
2021/12/07 13:01:14;;;;;;;18.70;3.30;;;;;;;6.36;100.00;98624.38;4986117;28;20723;-91
2021/12/07 13:03:44;;;;;;;18.25;3.33;;;;;;;6.31;100.00;98609.97;4983749;28;20050;-91
2021/12/07 13:06:15;;;;;;;17.02;3.88;;;;;;;6.27;100.00;98594.53;5009074;28;20141;-91
2021/12/07 13:09:01;;;;;;;25.30;4.70;;;;;;;6.21;100.00;98588.81;4988887;28;20099;-90
2021/12/07 13:11:46;;;;;;;25.35;5.18;;;;;;;6.40;100.00;98578.28;4986355;28;20060;-91
2021/12/07 13:14:21;;;;;;;13.10;3.58;;;;;;;6.44;100.00;98565.00;5000168;28;20045;-90
2021/12/07 13:16:51;;;;;;;18.23;3.65;;;;;;;6.29;100.00;98552.88;4981473;28;20056;-91
2021/12/07 13:19:19;;;;;;;18.52;3.78;;;;;;;6.40;100.00;98547.06;4991100;28;20042;-91
2021/12/07 13:21:48;;;;;;;20.52;3.85;;;;;;;6.36;100.00;98525.63;4983089;28;20061;-91
2021/12/07 13:24:21;;;;;;;16.02;3.08;;;;;;;6.33;100.00;98523.19;4987792;28;20065;-90
2021/12/07 13:26:54;;;;;;;13.88;4.63;;;;;;;6.36;100.00;98507.41;4986808;28;20507;-89
2021/12/07 13:29:23;;;;;;;19.73;3.00;;;;;;;6.51;100.00;98513.50;4984034;28;20061;-88
2021/12/07 13:31:57;;;;;;;20.50;3.25;;;;;;;6.49;100.00;98509.34;4987172;28;20506;-88
2021/12/07 13:34:26;;;;;;;18.35;3.65;;;;;;;6.62;100.00;98476.50;4991015;28;20129;-89